createdAt,value
2017-07-12T00:00:56.502Z,0
2017-07-12T00:01:58.528Z,0
2017-07-12T00:03:00.553Z,0
2017-07-12T00:04:02.926Z,0
2017-07-12T00:05:04.959Z,0
2017-07-12T00:06:06.991Z,0
2017-07-12T00:07:09.021Z,0
2017-07-12T00:08:11.723Z,0
2017-07-12T00:09:13.759Z,0
2017-07-12T00:10:15.785Z,0
2017-07-12T00:11:17.820Z,0
2017-07-12T00:12:19.850Z,0
2017-07-12T00:13:22.222Z,0
2017-07-12T00:14:24.255Z,0
2017-07-12T00:15:26.283Z,0
2017-07-12T00:16:28.315Z,0
2017-07-12T00:17:30.698Z,0
2017-07-12T00:18:32.728Z,0
2017-07-12T00:19:34.756Z,0
2017-07-12T00:20:36.789Z,0
2017-07-12T00:21:38.826Z,0
2017-07-12T00:22:40.866Z,0
2017-07-12T00:23:42.892Z,0
2017-07-12T00:24:45.263Z,0
2017-07-12T00:25:47.298Z,0
2017-07-12T00:26:49.329Z,0
2017-07-12T00:27:51.354Z,0
2017-07-12T00:28:53.388Z,0
2017-07-12T00:29:55.425Z,0
2017-07-12T00:30:57.456Z,0
2017-07-12T00:31:59.474Z,0
2017-07-12T00:33:01.512Z,0
2017-07-12T00:34:03.545Z,0
2017-07-12T00:35:05.576Z,0
2017-07-12T00:36:07.611Z,0
2017-07-12T00:37:09.650Z,0
2017-07-12T00:38:11.678Z,0
2017-07-12T00:39:13.709Z,0
2017-07-12T00:40:15.744Z,0
2017-07-12T00:41:17.787Z,0
2017-07-12T00:42:19.815Z,0
2017-07-12T00:43:21.847Z,0
2017-07-12T00:44:23.881Z,0
2017-07-12T00:45:25.912Z,0
2017-07-12T00:46:27.938Z,0
2017-07-12T00:47:29.975Z,0
2017-07-12T00:48:32.006Z,0
2017-07-12T00:49:34.037Z,0
2017-07-12T00:50:36.066Z,0
2017-07-12T00:51:38.447Z,0
2017-07-12T00:52:40.476Z,0
2017-07-12T00:53:42.507Z,0
2017-07-12T00:54:44.538Z,0
2017-07-12T00:55:46.575Z,0
2017-07-12T00:56:48.605Z,0
2017-07-12T00:57:50.990Z,0
2017-07-12T00:58:53.024Z,0
2017-07-12T00:59:55.059Z,0
2017-07-12T01:00:57.096Z,0
2017-07-12T01:01:59.128Z,0
2017-07-12T01:03:01.164Z,0
2017-07-12T01:04:03.191Z,0
2017-07-12T01:05:05.228Z,0
2017-07-12T01:06:07.264Z,0
2017-07-12T01:07:09.294Z,0
2017-07-12T01:08:11.327Z,0
2017-07-12T01:09:13.355Z,0
2017-07-12T01:10:15.385Z,0
2017-07-12T01:11:17.415Z,0
2017-07-12T01:12:19.439Z,0
2017-07-12T01:13:21.471Z,0
2017-07-12T01:14:23.503Z,0
2017-07-12T01:15:25.530Z,0
2017-07-12T01:16:27.570Z,0
2017-07-12T01:17:29.602Z,0
2017-07-12T01:18:31.631Z,0
2017-07-12T01:19:34.007Z,0
2017-07-12T01:20:36.040Z,0
2017-07-12T01:21:38.075Z,0
2017-07-12T01:22:40.105Z,0
2017-07-12T01:23:42.131Z,0
2017-07-12T01:24:44.171Z,0
2017-07-12T01:25:46.201Z,0
2017-07-12T01:26:48.231Z,0
2017-07-12T01:27:50.265Z,0
2017-07-12T01:28:52.296Z,0
2017-07-12T01:29:54.329Z,0
2017-07-12T01:30:56.353Z,0
2017-07-12T01:31:58.384Z,0
2017-07-12T01:33:00.418Z,0
2017-07-12T01:34:02.798Z,0
2017-07-12T01:35:04.830Z,0
2017-07-12T01:36:06.871Z,0
2017-07-12T01:37:08.900Z,0
2017-07-12T01:38:10.926Z,0
2017-07-12T01:39:12.954Z,0
2017-07-12T01:40:14.987Z,0
2017-07-12T01:41:17.020Z,0
2017-07-12T01:42:19.062Z,0
2017-07-12T01:43:21.113Z,0
2017-07-12T01:44:23.164Z,0
2017-07-12T01:45:25.214Z,0
2017-07-12T01:46:27.263Z,0
2017-07-12T01:47:29.321Z,0
2017-07-12T01:48:31.372Z,0
2017-07-12T01:49:33.422Z,0
2017-07-12T01:50:35.469Z,0
2017-07-12T01:51:37.517Z,0
2017-07-12T01:52:39.564Z,0
2017-07-12T01:53:41.612Z,0
2017-07-12T01:54:43.663Z,0
2017-07-12T01:55:45.712Z,0
2017-07-12T01:56:48.105Z,0
2017-07-12T01:57:50.153Z,0
2017-07-12T01:58:52.203Z,0
2017-07-12T01:59:54.249Z,0
2017-07-12T02:00:56.299Z,0
2017-07-12T02:01:58.349Z,0
2017-07-12T02:03:00.397Z,0
2017-07-12T02:04:02.446Z,0
2017-07-12T02:05:04.495Z,0
2017-07-12T02:06:06.545Z,0
2017-07-12T02:07:08.595Z,0
2017-07-12T02:08:10.646Z,0
2017-07-12T02:09:12.692Z,0
2017-07-12T02:10:14.741Z,0
2017-07-12T02:11:16.790Z,0
2017-07-12T02:12:18.837Z,0
2017-07-12T02:13:20.886Z,0
2017-07-12T02:14:22.938Z,0
2017-07-12T02:15:25.334Z,0
2017-07-12T02:16:27.382Z,0
2017-07-12T02:17:29.434Z,0
2017-07-12T02:18:31.482Z,0
2017-07-12T02:19:33.532Z,0
2017-07-12T02:20:35.584Z,0
2017-07-12T02:21:37.635Z,0
2017-07-12T02:22:39.683Z,0
2017-07-12T02:23:41.733Z,0
2017-07-12T02:24:43.782Z,0
2017-07-12T02:25:45.833Z,0
2017-07-12T02:26:47.883Z,0
2017-07-12T02:27:49.933Z,0
2017-07-12T02:28:51.982Z,0
2017-07-12T02:29:54.037Z,0
2017-07-12T02:30:56.091Z,0
2017-07-12T02:31:58.142Z,0
2017-07-12T02:33:00.190Z,0
2017-07-12T02:34:02.237Z,0
2017-07-12T02:35:04.289Z,0
2017-07-12T02:36:06.340Z,0
2017-07-12T02:37:08.393Z,0
2017-07-12T02:38:10.447Z,0
2017-07-12T02:39:12.497Z,0
2017-07-12T02:40:14.546Z,0
2017-07-12T02:41:16.595Z,0
2017-07-12T02:42:18.648Z,0
2017-07-12T02:43:20.699Z,0
2017-07-12T02:44:22.753Z,0
2017-07-12T02:45:24.788Z,0
2017-07-12T02:46:26.834Z,0
2017-07-12T02:47:30.087Z,0
2017-07-12T02:48:32.140Z,0
2017-07-12T02:49:34.190Z,0
2017-07-12T02:50:36.242Z,0
2017-07-12T02:51:38.643Z,0
2017-07-12T02:52:40.693Z,0
2017-07-12T02:53:42.740Z,0
2017-07-12T02:54:44.781Z,0
2017-07-12T02:55:46.821Z,1
2017-07-12T02:56:48.855Z,1
2017-07-12T02:57:50.887Z,1
2017-07-12T02:58:52.921Z,1
2017-07-12T02:59:54.959Z,1
2017-07-12T03:00:56.987Z,1
2017-07-12T03:01:59.020Z,2
2017-07-12T03:03:01.059Z,2
2017-07-12T03:04:03.093Z,2
2017-07-12T03:05:05.118Z,2
2017-07-12T03:06:07.154Z,2
2017-07-12T03:07:09.192Z,3
2017-07-12T03:08:11.224Z,3
2017-07-12T03:09:13.262Z,3
2017-07-12T03:10:15.304Z,3
2017-07-12T03:11:17.337Z,3
2017-07-12T03:12:19.366Z,3
2017-07-12T03:13:21.402Z,4
2017-07-12T03:14:23.437Z,4
2017-07-12T03:15:25.476Z,4
2017-07-12T03:16:27.511Z,4
2017-07-12T03:17:29.542Z,4
2017-07-12T03:18:31.583Z,4
2017-07-12T03:19:33.604Z,5
2017-07-12T03:20:35.637Z,5
2017-07-12T03:21:37.677Z,5
2017-07-12T03:22:39.710Z,5
2017-07-12T03:23:41.742Z,5
2017-07-12T03:24:43.782Z,6
2017-07-12T03:25:45.824Z,6
2017-07-12T03:26:47.858Z,5
2017-07-12T03:27:49.890Z,5
2017-07-12T03:28:51.928Z,5
2017-07-12T03:29:53.959Z,5
2017-07-12T03:30:56.343Z,6
2017-07-12T03:31:58.384Z,6
2017-07-12T03:33:00.413Z,6
2017-07-12T03:34:02.443Z,6
2017-07-12T03:35:04.473Z,6
2017-07-12T03:36:06.512Z,7
2017-07-12T03:37:08.552Z,7
2017-07-12T03:38:10.591Z,7
2017-07-12T03:39:12.968Z,8
2017-07-12T03:40:15.350Z,8
2017-07-12T03:41:17.380Z,8
2017-07-12T03:42:19.421Z,8
2017-07-12T03:43:21.457Z,8
2017-07-12T03:44:23.832Z,8
2017-07-12T03:45:25.871Z,8
2017-07-12T03:46:27.912Z,8
2017-07-12T03:47:29.946Z,8
2017-07-12T03:48:31.974Z,8
2017-07-12T03:49:34.006Z,8
2017-07-12T03:50:36.052Z,8
2017-07-12T03:51:38.081Z,8
2017-07-12T03:52:40.118Z,8
2017-07-12T03:53:42.147Z,9
2017-07-12T03:54:44.182Z,9
2017-07-12T03:55:46.215Z,9
2017-07-12T03:56:48.249Z,9
2017-07-12T03:57:50.285Z,9
2017-07-12T03:58:52.321Z,8
2017-07-12T03:59:54.345Z,8
2017-07-12T04:00:56.386Z,8
2017-07-12T04:01:58.421Z,8
2017-07-12T04:03:00.458Z,8
2017-07-12T04:04:02.498Z,8
2017-07-12T04:05:04.540Z,9
2017-07-12T04:06:06.636Z,9
2017-07-12T04:07:08.618Z,9
2017-07-12T04:08:10.652Z,9
2017-07-12T04:09:12.675Z,10
2017-07-12T04:10:14.704Z,10
2017-07-12T04:11:16.741Z,11
2017-07-12T04:12:19.469Z,13
2017-07-12T04:13:21.845Z,14
2017-07-12T04:14:23.881Z,17
2017-07-12T04:15:25.917Z,18
2017-07-12T04:16:27.940Z,19
2017-07-12T04:17:29.972Z,20
2017-07-12T04:18:32.019Z,19
2017-07-12T04:19:34.054Z,19
2017-07-12T04:20:36.094Z,19
2017-07-12T04:21:38.127Z,18
2017-07-12T04:22:40.160Z,17
2017-07-12T04:23:42.200Z,16
2017-07-12T04:24:44.236Z,15
2017-07-12T04:25:46.668Z,14
2017-07-12T04:26:48.706Z,12
2017-07-12T04:27:50.741Z,10
2017-07-12T04:28:52.785Z,9
2017-07-12T04:29:54.820Z,9
2017-07-12T04:30:56.869Z,9
2017-07-12T04:31:58.901Z,9
2017-07-12T04:33:00.935Z,9
2017-07-12T04:34:02.973Z,9
2017-07-12T04:35:05.007Z,9
2017-07-12T04:36:07.043Z,9
2017-07-12T04:37:09.087Z,9
2017-07-12T04:38:11.128Z,9
2017-07-12T04:39:13.509Z,10
2017-07-12T04:40:15.884Z,10
2017-07-12T04:41:17.923Z,9
2017-07-12T04:42:19.955Z,9
2017-07-12T04:43:21.992Z,9
2017-07-12T04:44:24.026Z,8
2017-07-12T04:45:26.419Z,8
2017-07-12T04:46:28.453Z,7
2017-07-12T04:47:30.489Z,6
2017-07-12T04:48:32.524Z,6
2017-07-12T04:49:34.562Z,6
2017-07-12T04:50:36.594Z,6
2017-07-12T04:51:39.284Z,6
2017-07-12T04:52:41.320Z,6
2017-07-12T04:53:44.101Z,6
2017-07-12T04:54:46.270Z,7
2017-07-12T04:55:48.324Z,8
2017-07-12T04:56:51.176Z,9
2017-07-12T04:57:53.308Z,9
2017-07-12T04:58:55.509Z,9
2017-07-12T04:59:57.897Z,9
2017-07-12T05:01:00.277Z,9
2017-07-12T05:02:02.392Z,9
2017-07-12T05:03:04.689Z,9
2017-07-12T05:04:07.185Z,9
2017-07-12T05:05:09.278Z,9
2017-07-12T05:06:11.398Z,9
2017-07-12T05:07:13.541Z,10
2017-07-12T05:08:15.701Z,10
2017-07-12T05:09:17.959Z,12
2017-07-12T05:10:20.204Z,13
2017-07-12T05:11:22.345Z,15
2017-07-12T05:12:25.275Z,17
2017-07-12T05:13:27.513Z,18
2017-07-12T05:14:29.583Z,19
2017-07-12T05:15:31.661Z,22
2017-07-12T05:16:34.331Z,23
2017-07-12T05:17:36.788Z,22
2017-07-12T05:18:39.507Z,21
2017-07-12T05:19:42.970Z,23
2017-07-12T05:20:45.386Z,25
2017-07-12T05:21:47.598Z,26
2017-07-12T05:22:50.822Z,24
2017-07-12T05:23:53.089Z,24
2017-07-12T05:24:55.290Z,28
2017-07-12T05:25:58.474Z,33
2017-07-12T05:27:00.678Z,36
2017-07-12T05:28:02.766Z,34
2017-07-12T05:29:04.817Z,31
2017-07-12T05:30:06.851Z,30
2017-07-12T05:31:08.898Z,29
2017-07-12T05:32:10.939Z,27
2017-07-12T05:33:12.982Z,25
2017-07-12T05:34:15.016Z,24
2017-07-12T05:35:17.066Z,23
2017-07-12T05:36:19.107Z,23
2017-07-12T05:37:21.149Z,23
2017-07-12T05:38:23.198Z,22
2017-07-12T05:39:25.602Z,22
2017-07-12T05:40:27.637Z,22
2017-07-12T05:41:29.682Z,22
2017-07-12T05:42:31.718Z,22
2017-07-12T05:43:33.757Z,21
2017-07-12T05:44:35.801Z,20
2017-07-12T05:45:37.839Z,20
2017-07-12T05:46:39.887Z,19
2017-07-12T05:47:41.929Z,18
2017-07-12T05:48:43.967Z,18
2017-07-12T05:49:46.003Z,18
2017-07-12T05:50:48.391Z,19
2017-07-12T05:51:50.440Z,20
2017-07-12T05:52:52.485Z,19
2017-07-12T05:53:54.528Z,19
2017-07-12T05:54:56.578Z,19
2017-07-12T05:55:58.611Z,19
2017-07-12T05:57:00.657Z,19
2017-07-12T05:58:03.738Z,20
2017-07-12T05:59:10.314Z,22
2017-07-12T06:00:18.737Z,24
2017-07-12T06:01:28.045Z,24
2017-07-12T06:02:35.722Z,24
2017-07-12T06:03:43.674Z,23
2017-07-12T06:04:53.948Z,23
2017-07-12T06:06:03.917Z,23
2017-07-12T06:07:12.878Z,24
2017-07-12T06:08:20.028Z,24
2017-07-12T06:09:28.508Z,24
2017-07-12T06:10:30.990Z,26
2017-07-12T06:11:33.082Z,26
2017-07-12T06:12:35.150Z,25
2017-07-12T06:13:37.181Z,27
2017-07-12T06:14:39.230Z,29
2017-07-12T06:15:41.292Z,26
2017-07-12T06:16:43.331Z,24
2017-07-12T06:17:45.732Z,22
2017-07-12T06:18:47.822Z,20
2017-07-12T06:19:49.860Z,18
2017-07-12T06:20:51.911Z,17
2017-07-12T06:21:53.966Z,16
2017-07-12T06:22:56.032Z,16
2017-07-12T06:23:58.081Z,15
2017-07-12T06:25:00.117Z,15
2017-07-12T06:26:02.233Z,16
2017-07-12T06:27:04.294Z,18
2017-07-12T06:28:06.369Z,19
2017-07-12T06:29:08.457Z,21
2017-07-12T06:30:10.508Z,22
2017-07-12T06:31:12.570Z,22
2017-07-12T06:32:14.616Z,23
2017-07-12T06:33:16.660Z,23
2017-07-12T06:34:18.812Z,24
2017-07-12T06:35:20.872Z,25
2017-07-12T06:36:22.939Z,26
2017-07-12T06:37:24.978Z,28
2017-07-12T06:38:27.156Z,31
2017-07-12T06:39:29.203Z,32
2017-07-12T06:40:31.315Z,33
2017-07-12T06:41:33.360Z,35
2017-07-12T06:42:35.439Z,39
2017-07-12T06:44:54.428Z,40
2017-07-12T06:45:56.459Z,33
2017-07-12T06:46:58.480Z,29
2017-07-12T06:48:00.498Z,27
2017-07-12T06:49:02.521Z,27
2017-07-12T06:50:04.549Z,29
2017-07-12T06:51:06.572Z,30
2017-07-12T06:52:08.594Z,31
2017-07-12T06:53:10.604Z,31
2017-07-12T06:54:12.627Z,31
2017-07-12T06:55:14.663Z,34
2017-07-12T06:56:16.688Z,40
2017-07-12T06:57:18.714Z,43
2017-07-12T06:58:20.741Z,43
2017-07-12T06:59:23.096Z,43
2017-07-12T07:00:25.117Z,44
2017-07-12T07:01:27.145Z,49
2017-07-12T07:02:29.167Z,54
2017-07-12T07:03:31.187Z,59
2017-07-12T07:04:33.199Z,68
2017-07-12T07:05:35.225Z,69
2017-07-12T07:06:37.246Z,63
2017-07-12T07:07:39.260Z,56
2017-07-12T07:08:41.282Z,43
2017-07-12T07:09:43.308Z,30
2017-07-12T07:10:45.325Z,21
2017-07-12T07:11:47.342Z,17
2017-07-12T07:12:49.362Z,19
2017-07-12T07:13:51.382Z,18
2017-07-12T07:14:53.397Z,16
2017-07-12T07:15:55.425Z,14
2017-07-12T07:16:57.446Z,14
2017-07-12T07:17:59.463Z,12
2017-07-12T07:19:01.489Z,12
2017-07-12T07:20:03.510Z,16
2017-07-12T07:21:05.521Z,17
2017-07-12T07:22:07.841Z,21
2017-07-12T07:23:09.863Z,21
2017-07-12T07:24:11.884Z,24
2017-07-12T07:25:13.901Z,36
2017-07-12T07:26:15.920Z,50
2017-07-12T07:27:17.948Z,62
2017-07-12T07:28:19.954Z,70
2017-07-12T07:29:21.976Z,68
2017-07-12T07:30:24.005Z,88
2017-07-12T07:31:26.383Z,87
2017-07-12T07:32:28.398Z,71
2017-07-12T07:33:30.409Z,72
2017-07-12T07:34:32.420Z,65
2017-07-12T07:35:34.451Z,71
2017-07-12T07:36:36.573Z,56
2017-07-12T07:37:38.602Z,50
2017-07-12T07:38:40.623Z,48
2017-07-12T07:39:42.636Z,59
2017-07-12T07:40:44.655Z,47
2017-07-12T07:41:46.676Z,42
2017-07-12T07:42:48.692Z,49
2017-07-12T07:43:50.709Z,47
2017-07-12T07:44:52.726Z,47
2017-07-12T07:45:54.755Z,48
2017-07-12T07:46:56.771Z,46
2017-07-12T07:47:58.790Z,47
2017-07-12T07:49:00.813Z,48
2017-07-12T07:50:02.830Z,38
2017-07-12T07:51:04.854Z,42
2017-07-12T07:52:06.870Z,47
2017-07-12T07:53:08.891Z,54
2017-07-12T07:54:10.917Z,68
2017-07-12T07:55:12.938Z,69
2017-07-12T07:56:14.955Z,73
2017-07-12T07:57:16.974Z,64
2017-07-12T07:58:18.993Z,63
2017-07-12T07:59:21.011Z,66
2017-07-12T08:00:23.033Z,61
2017-07-12T08:01:25.048Z,59
2017-07-12T08:02:27.066Z,56
2017-07-12T08:03:29.090Z,62
2017-07-12T08:04:31.111Z,67
2017-07-12T08:05:33.133Z,73
2017-07-12T08:06:35.156Z,74
2017-07-12T08:07:37.174Z,81
2017-07-12T08:08:39.194Z,89
2017-07-12T08:09:41.210Z,96
2017-07-12T08:10:43.236Z,108
2017-07-12T08:11:45.258Z,106
2017-07-12T08:12:47.280Z,105
2017-07-12T08:13:49.300Z,104
2017-07-12T08:14:51.317Z,103
2017-07-12T08:15:53.341Z,103
2017-07-12T08:16:55.360Z,106
2017-07-12T08:17:57.377Z,106
2017-07-12T08:18:59.404Z,106
2017-07-12T08:20:01.408Z,109
2017-07-12T08:21:03.431Z,111
2017-07-12T08:22:05.456Z,115
2017-07-12T08:23:07.480Z,119
2017-07-12T08:24:09.498Z,120
2017-07-12T08:25:11.527Z,121
2017-07-12T08:26:13.549Z,126
2017-07-12T08:27:15.569Z,132
2017-07-12T08:28:17.584Z,132
2017-07-12T08:29:19.616Z,133
2017-07-12T08:30:21.643Z,135
2017-07-12T08:31:23.665Z,135
2017-07-12T08:32:25.688Z,125
2017-07-12T08:33:27.715Z,125
2017-07-12T08:34:29.729Z,122
2017-07-12T08:35:31.758Z,123
2017-07-12T08:36:33.775Z,127
2017-07-12T08:37:35.798Z,126
2017-07-12T08:38:37.824Z,127
2017-07-12T08:39:39.847Z,126
2017-07-12T08:40:41.868Z,126
2017-07-12T08:41:43.886Z,138
2017-07-12T08:42:45.913Z,156
2017-07-12T08:43:47.940Z,165
2017-07-12T08:44:49.951Z,162
2017-07-12T08:45:51.977Z,157
2017-07-12T08:46:53.999Z,157
2017-07-12T08:47:56.022Z,164
2017-07-12T08:48:58.044Z,172
2017-07-12T08:50:00.409Z,168
2017-07-12T08:51:02.449Z,155
2017-07-12T08:52:04.466Z,138
2017-07-12T08:53:06.491Z,121
2017-07-12T08:54:08.514Z,109
2017-07-12T08:55:10.537Z,101
2017-07-12T08:56:12.557Z,99
2017-07-12T08:57:14.585Z,98
2017-07-12T08:58:16.606Z,100
2017-07-12T08:59:18.631Z,105
2017-07-12T09:00:20.647Z,112
2017-07-12T09:01:22.672Z,116
2017-07-12T09:02:24.716Z,113
2017-07-12T09:03:26.755Z,111
2017-07-12T09:04:28.781Z,110
2017-07-12T09:05:30.810Z,118
2017-07-12T09:06:32.899Z,124
2017-07-12T09:07:34.969Z,130
2017-07-12T09:08:37.153Z,121
2017-07-12T09:09:39.285Z,106
2017-07-12T09:10:41.424Z,104
2017-07-12T09:11:43.441Z,97
2017-07-12T09:12:45.492Z,92
2017-07-12T09:13:47.552Z,86
2017-07-12T09:14:49.935Z,79
2017-07-12T09:15:51.965Z,65
2017-07-12T09:16:53.999Z,65
2017-07-12T09:17:56.070Z,89
2017-07-12T09:18:58.113Z,120
2017-07-12T09:20:00.526Z,136
2017-07-12T09:21:02.576Z,145
2017-07-12T09:22:04.599Z,148
2017-07-12T09:23:06.639Z,149
2017-07-12T09:24:08.660Z,155
2017-07-12T09:33:36.244Z,202
2017-07-12T09:34:38.278Z,212
2017-07-12T09:35:40.318Z,200
2017-07-12T09:36:42.371Z,193
2017-07-12T09:37:44.735Z,195
2017-07-12T09:38:46.811Z,202
2017-07-12T09:39:48.836Z,195
2017-07-12T09:40:51.207Z,173
2017-07-12T09:41:53.227Z,158
2017-07-12T09:42:55.256Z,129
2017-07-12T09:43:57.332Z,127
2017-07-12T09:44:59.393Z,140
2017-07-12T09:46:01.475Z,138
2017-07-12T09:47:03.521Z,142
2017-07-12T09:48:05.549Z,144
2017-07-12T09:49:07.612Z,124
2017-07-12T09:50:09.660Z,127
2017-07-12T09:51:11.690Z,111
2017-07-12T09:52:13.722Z,110
2017-07-12T09:53:15.751Z,119
2017-07-12T09:54:17.786Z,149
2017-07-12T09:55:19.827Z,134
2017-07-12T09:56:21.949Z,97
2017-07-12T09:57:23.990Z,103
2017-07-12T09:58:26.040Z,93
2017-07-12T09:59:28.059Z,102
2017-07-12T10:00:30.101Z,113
2017-07-12T10:01:32.132Z,127
2017-07-12T10:02:34.157Z,125
2017-07-12T10:03:36.210Z,99
2017-07-12T10:04:38.263Z,86
2017-07-12T10:05:40.279Z,81
2017-07-12T10:06:42.311Z,77
2017-07-12T10:07:44.337Z,78
2017-07-12T10:08:46.368Z,68
2017-07-12T10:09:48.394Z,59
2017-07-12T10:10:50.819Z,74
2017-07-12T10:11:53.181Z,74
2017-07-12T10:12:55.203Z,75
2017-07-12T10:13:57.235Z,65
2017-07-12T10:14:59.327Z,74
2017-07-12T10:16:01.346Z,62
2017-07-12T10:17:03.373Z,65
2017-07-12T10:18:05.395Z,75
2017-07-12T10:19:07.474Z,79
2017-07-12T10:20:09.508Z,64
2017-07-12T10:21:11.529Z,54
2017-07-12T10:22:13.545Z,52
2017-07-12T10:23:15.920Z,66
2017-07-12T10:24:17.936Z,76
2017-07-12T10:25:19.979Z,92
2017-07-12T10:26:21.999Z,88
2017-07-12T10:27:24.025Z,112
2017-07-12T10:28:26.045Z,110
2017-07-12T10:29:28.073Z,84
2017-07-12T10:30:30.105Z,92
2017-07-12T10:31:32.210Z,121
2017-07-12T10:32:34.228Z,147
2017-07-12T10:33:36.253Z,149
2017-07-12T10:34:38.272Z,148
2017-07-12T10:35:40.296Z,159
2017-07-12T10:36:42.448Z,175
2017-07-12T10:37:44.485Z,174
2017-07-12T10:38:46.845Z,146
2017-07-12T10:39:48.873Z,173
2017-07-12T10:40:50.894Z,198
2017-07-12T10:41:52.965Z,208
2017-07-12T10:42:54.992Z,202
2017-07-12T10:43:57.019Z,197
2017-07-12T10:44:59.036Z,208
2017-07-12T10:46:01.071Z,181
2017-07-12T10:47:03.129Z,161
2017-07-12T10:48:05.161Z,156
2017-07-12T10:49:07.179Z,140
2017-07-12T10:50:09.216Z,113
2017-07-12T10:51:11.240Z,88
2017-07-12T10:52:13.277Z,74
2017-07-12T10:53:15.303Z,71
2017-07-12T10:54:17.327Z,85
2017-07-12T10:55:19.346Z,90
2017-07-12T10:56:21.715Z,103
2017-07-12T10:57:23.735Z,116
2017-07-12T10:58:25.761Z,121
2017-07-12T10:59:27.783Z,136
2017-07-12T11:00:29.808Z,161
2017-07-12T11:01:31.841Z,160
2017-07-12T11:02:34.209Z,187
2017-07-12T11:03:36.232Z,195
2017-07-12T11:04:38.260Z,189
2017-07-12T11:05:40.279Z,166
2017-07-12T11:06:42.387Z,163
2017-07-12T11:07:44.409Z,155
2017-07-12T11:08:46.433Z,139
2017-07-12T11:09:48.454Z,140
2017-07-12T11:10:50.491Z,146
2017-07-12T11:11:52.935Z,147
2017-07-12T11:12:54.948Z,142
2017-07-12T11:13:56.976Z,131
2017-07-12T11:14:58.999Z,120
2017-07-12T11:16:01.023Z,99
2017-07-12T11:17:03.183Z,69
2017-07-12T11:18:05.214Z,57
2017-07-12T11:19:07.587Z,53
2017-07-12T11:20:09.607Z,59
2017-07-12T11:21:11.631Z,65
2017-07-12T11:22:13.659Z,75
2017-07-12T11:23:15.685Z,77
2017-07-12T11:24:17.705Z,77
2017-07-12T11:25:19.731Z,98
2017-07-12T11:26:21.751Z,95
2017-07-12T11:27:23.771Z,79
2017-07-12T11:28:25.798Z,67
2017-07-12T11:29:28.172Z,60
2017-07-12T11:30:30.193Z,52
2017-07-12T11:31:32.347Z,45
2017-07-12T11:32:34.374Z,65
2017-07-12T11:33:36.397Z,90
2017-07-12T11:34:38.425Z,93
2017-07-12T11:35:40.451Z,94
2017-07-12T11:36:42.478Z,81
2017-07-12T11:37:44.718Z,71
2017-07-12T11:38:46.724Z,81
2017-07-12T11:39:48.748Z,87
2017-07-12T11:40:50.892Z,83
2017-07-12T11:41:52.917Z,86
2017-07-12T11:42:54.944Z,82
2017-07-12T11:43:56.978Z,76
2017-07-12T11:44:59.003Z,72
2017-07-12T11:46:01.018Z,70
2017-07-12T11:47:03.043Z,66
2017-07-12T11:48:05.063Z,63
2017-07-12T11:49:07.084Z,63
2017-07-12T11:50:09.443Z,57
2017-07-12T11:51:11.459Z,46
2017-07-12T11:52:13.580Z,36
2017-07-12T11:53:15.589Z,30
2017-07-12T11:54:17.612Z,26
2017-07-12T11:55:19.642Z,24
2017-07-12T11:56:21.666Z,21
2017-07-12T11:57:23.691Z,17
2017-07-12T11:58:25.719Z,13
2017-07-12T11:59:27.742Z,9
2017-07-12T12:00:29.774Z,6
2017-07-12T12:01:31.785Z,5
2017-07-12T12:02:33.819Z,6
2017-07-12T12:03:35.847Z,6
2017-07-12T12:04:37.861Z,7
2017-07-12T12:05:39.888Z,8
2017-07-12T12:06:41.927Z,9
2017-07-12T12:07:43.952Z,10
2017-07-12T12:08:45.973Z,12
2017-07-12T12:09:48.009Z,14
2017-07-12T12:10:50.045Z,15
2017-07-12T12:11:52.093Z,17
2017-07-12T12:12:54.123Z,21
2017-07-12T12:13:56.171Z,25
2017-07-12T12:14:58.219Z,29
2017-07-12T12:16:00.317Z,36
2017-07-12T12:17:02.355Z,47
2017-07-12T12:18:04.398Z,62
2017-07-12T12:19:06.433Z,73
2017-07-12T12:20:08.476Z,86
2017-07-12T12:21:10.513Z,89
2017-07-12T12:22:12.556Z,91
2017-07-12T12:23:18.098Z,97
2017-07-12T12:24:24.294Z,89
2017-07-12T12:25:31.125Z,84
2017-07-12T12:26:39.391Z,85
2017-07-12T12:27:47.630Z,78
2017-07-12T12:28:56.455Z,75
2017-07-12T12:30:05.528Z,73
2017-07-12T12:31:13.548Z,73
2017-07-12T12:32:21.907Z,67
2017-07-12T12:33:31.382Z,84
2017-07-12T12:34:40.491Z,89
2017-07-12T12:35:48.596Z,83
2017-07-12T12:36:59.030Z,74
2017-07-12T12:38:07.174Z,73
2017-07-12T12:39:43.428Z,71
2017-07-12T12:40:51.533Z,74
2017-07-12T12:42:00.481Z,76
2017-07-12T12:43:07.889Z,84
2017-07-12T12:44:17.209Z,77
2017-07-12T12:45:25.075Z,69
2017-07-12T12:46:32.013Z,60
2017-07-12T12:47:39.107Z,67
2017-07-12T12:48:46.651Z,69
2017-07-12T12:49:56.249Z,57
2017-07-12T12:51:04.820Z,58
2017-07-12T12:52:13.272Z,70
2017-07-12T12:53:21.231Z,81
2017-07-12T12:54:35.437Z,82
2017-07-12T12:55:44.308Z,81
2017-07-12T12:56:54.382Z,74
2017-07-12T12:58:06.053Z,61
2017-07-12T12:59:14.973Z,49
2017-07-12T13:00:22.762Z,40
2017-07-12T13:01:28.789Z,37
2017-07-12T13:02:36.265Z,40
2017-07-12T13:03:44.771Z,40
2017-07-12T13:04:53.377Z,37
2017-07-12T13:06:02.254Z,35
2017-07-12T13:07:10.721Z,45
2017-07-12T13:08:24.866Z,59
2017-07-12T13:09:32.736Z,72
2017-07-12T13:10:41.162Z,85
2017-07-12T13:11:49.482Z,87
2017-07-12T13:12:57.278Z,90
2017-07-12T13:14:05.682Z,89
2017-07-12T13:15:13.395Z,83
2017-07-12T13:16:23.688Z,79
2017-07-12T13:17:31.094Z,69
2017-07-12T13:18:39.051Z,69
2017-07-12T13:19:47.250Z,59
2017-07-12T13:20:55.272Z,54
2017-07-12T13:22:03.411Z,58
2017-07-12T13:23:11.212Z,55
2017-07-12T13:24:19.120Z,57
2017-07-12T13:25:27.991Z,52
2017-07-12T13:26:33.133Z,50
2017-07-12T13:27:40.364Z,56
2017-07-12T13:28:49.582Z,53
2017-07-12T13:30:03.506Z,45
2017-07-12T13:31:12.234Z,43
2017-07-12T13:32:20.904Z,47
2017-07-12T13:33:28.915Z,49
2017-07-12T13:34:36.760Z,49
2017-07-12T13:35:45.823Z,53
2017-07-12T13:36:54.786Z,47
2017-07-12T13:38:04.379Z,60
2017-07-12T13:39:12.949Z,61
2017-07-12T13:40:21.702Z,70
2017-07-12T13:41:30.617Z,66
2017-07-12T13:42:39.860Z,76
2017-07-12T13:43:50.736Z,83
2017-07-12T13:45:05.595Z,85
2017-07-12T13:46:13.663Z,87
2017-07-12T13:47:25.111Z,85
2017-07-12T13:48:34.012Z,79
2017-07-12T13:49:43.544Z,74
2017-07-12T13:50:50.297Z,64
2017-07-12T13:51:52.735Z,58
2017-07-12T13:52:56.284Z,55
2017-07-12T13:54:00.990Z,53
2017-07-12T13:55:07.298Z,50
2017-07-12T13:56:15.544Z,47
2017-07-12T13:57:21.260Z,45
2017-07-12T13:58:23.724Z,36
2017-07-12T13:59:25.776Z,38
2017-07-12T14:00:27.788Z,47
2017-07-12T14:01:29.823Z,50
2017-07-12T14:02:31.855Z,40
2017-07-12T14:03:33.872Z,43
2017-07-12T14:04:35.911Z,40
2017-07-12T14:05:37.935Z,36
2017-07-12T14:06:39.964Z,34
2017-07-12T14:07:42.334Z,35
2017-07-12T14:08:44.358Z,40
2017-07-12T14:09:46.382Z,49
2017-07-12T14:10:48.416Z,56
2017-07-12T14:11:50.448Z,61
2017-07-12T14:12:52.480Z,64
2017-07-12T14:13:54.495Z,66
2017-07-12T14:14:56.532Z,68
2017-07-12T14:15:58.555Z,67
2017-07-12T14:17:00.583Z,67
2017-07-12T14:18:02.614Z,66
2017-07-12T14:19:04.645Z,65
2017-07-12T14:20:06.668Z,65
2017-07-12T14:21:08.706Z,65
2017-07-12T14:22:10.721Z,67
2017-07-12T14:23:12.750Z,70
2017-07-12T14:24:14.773Z,73
2017-07-12T14:25:16.860Z,78
2017-07-12T14:26:18.842Z,83
2017-07-12T14:27:20.864Z,85
2017-07-12T14:28:22.892Z,91
2017-07-12T14:29:24.921Z,93
2017-07-12T14:30:26.947Z,100
2017-07-12T14:31:28.980Z,103
2017-07-12T14:32:31.017Z,112
2017-07-12T14:33:33.044Z,115
2017-07-12T14:34:35.068Z,124
2017-07-12T14:35:37.093Z,130
2017-07-12T14:36:39.176Z,131
2017-07-12T14:37:41.204Z,129
2017-07-12T14:38:43.217Z,117
2017-07-12T14:39:45.245Z,115
2017-07-12T14:40:47.635Z,110
2017-07-12T14:41:49.662Z,104
2017-07-12T14:42:51.686Z,99
2017-07-12T14:43:53.720Z,97
2017-07-12T14:44:55.746Z,95
2017-07-12T14:45:57.762Z,84
2017-07-12T14:46:59.787Z,61
2017-07-12T14:48:01.816Z,44
2017-07-12T14:49:03.844Z,54
2017-07-12T14:50:05.877Z,67
2017-07-12T14:51:07.905Z,67
2017-07-12T14:52:10.266Z,61
2017-07-12T14:53:12.291Z,60
2017-07-12T14:54:14.311Z,67
2017-07-12T14:55:16.338Z,69
2017-07-12T14:56:18.357Z,78
2017-07-12T14:57:20.383Z,93
2017-07-12T14:58:22.416Z,100
2017-07-12T14:59:24.445Z,100
2017-07-12T15:00:26.481Z,98
2017-07-12T15:01:28.502Z,105
2017-07-12T15:02:30.524Z,106
2017-07-12T15:03:32.549Z,99
2017-07-12T15:04:34.571Z,90
2017-07-12T15:05:36.603Z,81
2017-07-12T15:06:38.626Z,75
2017-07-12T15:07:40.648Z,72
2017-07-12T15:08:42.683Z,68
2017-07-12T15:09:44.711Z,62
2017-07-12T15:10:46.728Z,62